sensor_id;sensor_type;location;lat;lon;timestamp;temperature;humidity
44223;DHT22;29895;48.804;9.386;2024-03-06T00:00:59;5.60;99.90
44223;DHT22;29895;48.804;9.386;2024-03-06T00:03:25;5.60;99.90
44223;DHT22;29895;48.804;9.386;2024-03-06T00:05:50;5.50;99.90
44223;DHT22;29895;48.804;9.386;2024-03-06T00:08:16;5.50;99.90
44223;DHT22;29895;48.804;9.386;2024-03-06T00:10:42;5.50;99.90
44223;DHT22;29895;48.804;9.386;2024-03-06T00:13:08;5.50;99.90
44223;DHT22;29895;48.804;9.386;2024-03-06T00:15:34;5.40;99.90
44223;DHT22;29895;48.804;9.386;2024-03-06T00:18:00;5.40;99.90
44223;DHT22;29895;48.804;9.386;2024-03-06T00:20:26;5.40;99.90
44223;DHT22;29895;48.804;9.386;2024-03-06T00:22:52;5.40;99.90
44223;DHT22;29895;48.804;9.386;2024-03-06T00:25:17;5.50;99.90
44223;DHT22;29895;48.804;9.386;2024-03-06T00:27:43;5.50;99.90
44223;DHT22;29895;48.804;9.386;2024-03-06T00:30:09;5.50;99.90
44223;DHT22;29895;48.804;9.386;2024-03-06T00:32:35;5.50;99.90
44223;DHT22;29895;48.804;9.386;2024-03-06T00:35:00;5.50;99.90
44223;DHT22;29895;48.804;9.386;2024-03-06T00:37:26;5.40;99.90
44223;DHT22;29895;48.804;9.386;2024-03-06T00:39:51;5.50;99.90
44223;DHT22;29895;48.804;9.386;2024-03-06T00:42:17;5.50;99.90
44223;DHT22;29895;48.804;9.386;2024-03-06T00:44:43;5.50;99.90
44223;DHT22;29895;48.804;9.386;2024-03-06T00:47:08;5.40;99.90
44223;DHT22;29895;48.804;9.386;2024-03-06T00:49:34;5.40;99.90
44223;DHT22;29895;48.804;9.386;2024-03-06T00:52:00;5.40;99.90
44223;DHT22;29895;48.804;9.386;2024-03-06T00:54:25;5.40;99.90
44223;DHT22;29895;48.804;9.386;2024-03-06T00:56:51;5.40;99.90
44223;DHT22;29895;48.804;9.386;2024-03-06T00:59:17;5.40;99.90
44223;DHT22;29895;48.804;9.386;2024-03-06T01:01:42;5.40;99.90
44223;DHT22;29895;48.804;9.386;2024-03-06T01:04:08;5.40;99.90
44223;DHT22;29895;48.804;9.386;2024-03-06T01:06:34;5.40;99.90
44223;DHT22;29895;48.804;9.386;2024-03-06T01:08:59;5.40;99.90
44223;DHT22;29895;48.804;9.386;2024-03-06T01:11:25;5.40;99.90
44223;DHT22;29895;48.804;9.386;2024-03-06T01:13:54;5.40;99.90
44223;DHT22;29895;48.804;9.386;2024-03-06T01:16:20;5.30;99.90
44223;DHT22;29895;48.804;9.386;2024-03-06T01:18:46;5.30;99.90
44223;DHT22;29895;48.804;9.386;2024-03-06T01:21:11;5.30;99.90
44223;DHT22;29895;48.804;9.386;2024-03-06T01:23:37;5.30;99.90
44223;DHT22;29895;48.804;9.386;2024-03-06T01:26:03;5.30;99.90
44223;DHT22;29895;48.804;9.386;2024-03-06T01:28:28;5.30;99.90
44223;DHT22;29895;48.804;9.386;2024-03-06T01:30:54;5.30;99.90
44223;DHT22;29895;48.804;9.386;2024-03-06T01:33:19;5.30;99.90
44223;DHT22;29895;48.804;9.386;2024-03-06T01:35:45;5.30;99.90
44223;DHT22;29895;48.804;9.386;2024-03-06T01:38:11;5.20;99.90
44223;DHT22;29895;48.804;9.386;2024-03-06T01:40:37;5.30;99.90
44223;DHT22;29895;48.804;9.386;2024-03-06T01:43:02;5.20;99.90
44223;DHT22;29895;48.804;9.386;2024-03-06T01:45:28;5.20;99.90
44223;DHT22;29895;48.804;9.386;2024-03-06T01:47:54;5.20;99.90
44223;DHT22;29895;48.804;9.386;2024-03-06T01:50:20;5.30;99.90
44223;DHT22;29895;48.804;9.386;2024-03-06T01:52:46;5.30;99.90
44223;DHT22;29895;48.804;9.386;2024-03-06T01:55:13;5.20;99.90
44223;DHT22;29895;48.804;9.386;2024-03-06T01:57:39;5.20;99.90
44223;DHT22;29895;48.804;9.386;2024-03-06T02:00:08;5.20;99.90
44223;DHT22;29895;48.804;9.386;2024-03-06T02:02:40;5.20;99.90
44223;DHT22;29895;48.804;9.386;2024-03-06T02:05:06;5.20;99.90
44223;DHT22;29895;48.804;9.386;2024-03-06T02:07:32;5.20;99.90
44223;DHT22;29895;48.804;9.386;2024-03-06T02:09:59;5.20;99.90
44223;DHT22;29895;48.804;9.386;2024-03-06T02:12:24;5.20;99.90
44223;DHT22;29895;48.804;9.386;2024-03-06T02:14:50;5.20;99.90
44223;DHT22;29895;48.804;9.386;2024-03-06T02:17:16;5.20;99.90
44223;DHT22;29895;48.804;9.386;2024-03-06T02:19:43;5.20;99.90
44223;DHT22;29895;48.804;9.386;2024-03-06T02:22:10;5.20;99.90
44223;DHT22;29895;48.804;9.386;2024-03-06T02:24:36;5.20;99.90
44223;DHT22;29895;48.804;9.386;2024-03-06T02:27:05;5.30;99.90
44223;DHT22;29895;48.804;9.386;2024-03-06T02:29:33;5.30;99.90
44223;DHT22;29895;48.804;9.386;2024-03-06T02:31:59;5.30;99.90
44223;DHT22;29895;48.804;9.386;2024-03-06T02:34:28;5.30;99.90
44223;DHT22;29895;48.804;9.386;2024-03-06T02:36:54;5.30;99.90
44223;DHT22;29895;48.804;9.386;2024-03-06T02:39:19;5.30;99.90
44223;DHT22;29895;48.804;9.386;2024-03-06T02:41:47;5.40;99.90
44223;DHT22;29895;48.804;9.386;2024-03-06T02:44:12;5.30;99.90
44223;DHT22;29895;48.804;9.386;2024-03-06T02:46:38;5.30;99.90
44223;DHT22;29895;48.804;9.386;2024-03-06T02:49:04;5.30;99.90
44223;DHT22;29895;48.804;9.386;2024-03-06T02:51:31;5.30;99.90
44223;DHT22;29895;48.804;9.386;2024-03-06T02:53:57;5.20;99.90
44223;DHT22;29895;48.804;9.386;2024-03-06T02:56:22;5.20;99.90
44223;DHT22;29895;48.804;9.386;2024-03-06T02:58:48;5.20;99.90
44223;DHT22;29895;48.804;9.386;2024-03-06T03:01:14;5.20;99.90
44223;DHT22;29895;48.804;9.386;2024-03-06T03:03:41;5.20;99.90
44223;DHT22;29895;48.804;9.386;2024-03-06T03:06:07;5.20;99.90
44223;DHT22;29895;48.804;9.386;2024-03-06T03:08:33;5.20;99.90
44223;DHT22;29895;48.804;9.386;2024-03-06T03:10:58;5.30;99.90
44223;DHT22;29895;48.804;9.386;2024-03-06T03:13:24;5.30;99.90
44223;DHT22;29895;48.804;9.386;2024-03-06T03:15:50;5.20;99.90
44223;DHT22;29895;48.804;9.386;2024-03-06T03:18:17;5.20;99.90
44223;DHT22;29895;48.804;9.386;2024-03-06T03:20:43;5.20;99.90
44223;DHT22;29895;48.804;9.386;2024-03-06T03:23:09;5.20;99.90
44223;DHT22;29895;48.804;9.386;2024-03-06T03:25:37;5.30;99.90
44223;DHT22;29895;48.804;9.386;2024-03-06T03:28:04;5.30;99.90
44223;DHT22;29895;48.804;9.386;2024-03-06T03:30:30;5.30;99.90
44223;DHT22;29895;48.804;9.386;2024-03-06T03:32:57;5.30;99.90
44223;DHT22;29895;48.804;9.386;2024-03-06T03:35:23;5.30;99.90
44223;DHT22;29895;48.804;9.386;2024-03-06T03:37:51;5.40;99.90
44223;DHT22;29895;48.804;9.386;2024-03-06T03:40:17;5.30;99.90
44223;DHT22;29895;48.804;9.386;2024-03-06T03:42:46;5.30;99.90
44223;DHT22;29895;48.804;9.386;2024-03-06T03:45:11;5.40;99.90
44223;DHT22;29895;48.804;9.386;2024-03-06T03:47:37;5.30;99.90
44223;DHT22;29895;48.804;9.386;2024-03-06T03:50:03;5.30;99.90
44223;DHT22;29895;48.804;9.386;2024-03-06T03:52:29;5.40;99.90
44223;DHT22;29895;48.804;9.386;2024-03-06T03:54:55;5.40;99.90
44223;DHT22;29895;48.804;9.386;2024-03-06T03:57:21;5.40;99.90
44223;DHT22;29895;48.804;9.386;2024-03-06T03:59:46;5.30;99.90
44223;DHT22;29895;48.804;9.386;2024-03-06T04:02:12;5.40;99.90
44223;DHT22;29895;48.804;9.386;2024-03-06T04:04:38;5.30;99.90
44223;DHT22;29895;48.804;9.386;2024-03-06T04:07:03;5.40;99.90
44223;DHT22;29895;48.804;9.386;2024-03-06T04:09:32;5.40;99.90
44223;DHT22;29895;48.804;9.386;2024-03-06T04:11:57;5.30;99.90
44223;DHT22;29895;48.804;9.386;2024-03-06T04:14:23;5.30;99.90
44223;DHT22;29895;48.804;9.386;2024-03-06T04:16:50;5.30;99.90
44223;DHT22;29895;48.804;9.386;2024-03-06T04:19:15;5.30;99.90
44223;DHT22;29895;48.804;9.386;2024-03-06T04:21:41;5.30;99.90
44223;DHT22;29895;48.804;9.386;2024-03-06T04:24:07;5.30;99.90
44223;DHT22;29895;48.804;9.386;2024-03-06T04:26:33;5.30;99.90
44223;DHT22;29895;48.804;9.386;2024-03-06T04:28:59;5.30;99.90
44223;DHT22;29895;48.804;9.386;2024-03-06T04:31:24;5.30;99.90
44223;DHT22;29895;48.804;9.386;2024-03-06T04:33:50;5.40;99.90
44223;DHT22;29895;48.804;9.386;2024-03-06T04:36:16;5.40;99.90
44223;DHT22;29895;48.804;9.386;2024-03-06T04:38:42;5.40;99.90
44223;DHT22;29895;48.804;9.386;2024-03-06T04:41:08;5.40;99.90
44223;DHT22;29895;48.804;9.386;2024-03-06T04:43:34;5.40;99.90
44223;DHT22;29895;48.804;9.386;2024-03-06T04:46:00;5.40;99.90
44223;DHT22;29895;48.804;9.386;2024-03-06T04:48:26;5.40;99.90
44223;DHT22;29895;48.804;9.386;2024-03-06T04:50:51;5.40;99.90
44223;DHT22;29895;48.804;9.386;2024-03-06T04:53:18;5.40;99.90
44223;DHT22;29895;48.804;9.386;2024-03-06T04:55:45;5.40;99.90
44223;DHT22;29895;48.804;9.386;2024-03-06T04:58:12;5.40;99.90
44223;DHT22;29895;48.804;9.386;2024-03-06T05:00:38;5.40;99.90
44223;DHT22;29895;48.804;9.386;2024-03-06T05:03:03;5.50;99.90
44223;DHT22;29895;48.804;9.386;2024-03-06T05:05:29;5.50;99.90
44223;DHT22;29895;48.804;9.386;2024-03-06T05:07:55;5.60;99.90
44223;DHT22;29895;48.804;9.386;2024-03-06T05:10:20;5.60;99.90
44223;DHT22;29895;48.804;9.386;2024-03-06T05:12:46;5.60;99.90
44223;DHT22;29895;48.804;9.386;2024-03-06T05:15:13;5.60;99.90
44223;DHT22;29895;48.804;9.386;2024-03-06T05:17:39;5.60;99.90
44223;DHT22;29895;48.804;9.386;2024-03-06T05:20:05;5.60;99.90
44223;DHT22;29895;48.804;9.386;2024-03-06T05:22:31;5.60;99.90
44223;DHT22;29895;48.804;9.386;2024-03-06T05:24:57;5.70;99.90
44223;DHT22;29895;48.804;9.386;2024-03-06T05:27:24;5.70;99.90
44223;DHT22;29895;48.804;9.386;2024-03-06T05:29:50;5.70;99.90
44223;DHT22;29895;48.804;9.386;2024-03-06T05:32:16;5.70;99.90
44223;DHT22;29895;48.804;9.386;2024-03-06T05:34:41;5.60;99.90
44223;DHT22;29895;48.804;9.386;2024-03-06T05:37:07;5.70;99.90
44223;DHT22;29895;48.804;9.386;2024-03-06T05:39:33;5.70;99.90
44223;DHT22;29895;48.804;9.386;2024-03-06T05:42:03;5.70;99.90
44223;DHT22;29895;48.804;9.386;2024-03-06T05:44:33;5.70;99.90
44223;DHT22;29895;48.804;9.386;2024-03-06T05:47:02;5.60;99.90
44223;DHT22;29895;48.804;9.386;2024-03-06T05:49:29;5.60;99.90
44223;DHT22;29895;48.804;9.386;2024-03-06T05:51:55;5.70;99.90
44223;DHT22;29895;48.804;9.386;2024-03-06T05:54:21;5.70;99.90
44223;DHT22;29895;48.804;9.386;2024-03-06T05:56:50;5.70;99.90
44223;DHT22;29895;48.804;9.386;2024-03-06T05:59:17;5.70;99.90
44223;DHT22;29895;48.804;9.386;2024-03-06T06:01:42;5.70;99.90
44223;DHT22;29895;48.804;9.386;2024-03-06T06:04:09;5.70;99.90
44223;DHT22;29895;48.804;9.386;2024-03-06T06:06:35;5.70;99.90
44223;DHT22;29895;48.804;9.386;2024-03-06T06:09:01;5.80;99.90
44223;DHT22;29895;48.804;9.386;2024-03-06T06:11:30;5.70;99.90
44223;DHT22;29895;48.804;9.386;2024-03-06T06:13:56;5.70;99.90
44223;DHT22;29895;48.804;9.386;2024-03-06T06:16:22;5.80;99.90
44223;DHT22;29895;48.804;9.386;2024-03-06T06:18:47;5.90;99.90
44223;DHT22;29895;48.804;9.386;2024-03-06T06:21:13;5.80;99.90
44223;DHT22;29895;48.804;9.386;2024-03-06T06:23:38;5.90;99.90
44223;DHT22;29895;48.804;9.386;2024-03-06T06:26:04;5.90;99.90
44223;DHT22;29895;48.804;9.386;2024-03-06T06:28:30;5.90;99.90
44223;DHT22;29895;48.804;9.386;2024-03-06T06:30:56;5.90;99.90
44223;DHT22;29895;48.804;9.386;2024-03-06T06:33:21;5.90;99.90
44223;DHT22;29895;48.804;9.386;2024-03-06T06:35:47;6.00;99.90
44223;DHT22;29895;48.804;9.386;2024-03-06T06:38:13;6.00;99.90
44223;DHT22;29895;48.804;9.386;2024-03-06T06:40:39;6.00;99.90
44223;DHT22;29895;48.804;9.386;2024-03-06T06:43:06;5.90;99.90
44223;DHT22;29895;48.804;9.386;2024-03-06T06:45:32;6.00;99.90
44223;DHT22;29895;48.804;9.386;2024-03-06T06:47:57;6.00;99.90
44223;DHT22;29895;48.804;9.386;2024-03-06T06:50:23;6.00;99.90
44223;DHT22;29895;48.804;9.386;2024-03-06T06:52:51;6.00;99.90
44223;DHT22;29895;48.804;9.386;2024-03-06T06:55:17;6.10;99.90
44223;DHT22;29895;48.804;9.386;2024-03-06T06:57:43;6.00;99.90
44223;DHT22;29895;48.804;9.386;2024-03-06T07:00:10;6.10;99.90
44223;DHT22;29895;48.804;9.386;2024-03-06T07:02:39;6.10;99.90
44223;DHT22;29895;48.804;9.386;2024-03-06T07:05:05;6.10;99.90
44223;DHT22;29895;48.804;9.386;2024-03-06T07:07:31;6.10;99.90
44223;DHT22;29895;48.804;9.386;2024-03-06T07:09:56;6.10;99.90
44223;DHT22;29895;48.804;9.386;2024-03-06T07:12:23;6.10;99.90
44223;DHT22;29895;48.804;9.386;2024-03-06T07:14:48;6.10;99.90
44223;DHT22;29895;48.804;9.386;2024-03-06T07:17:14;6.10;99.90
44223;DHT22;29895;48.804;9.386;2024-03-06T07:19:39;6.20;99.90
44223;DHT22;29895;48.804;9.386;2024-03-06T07:22:05;6.20;99.90
44223;DHT22;29895;48.804;9.386;2024-03-06T07:24:31;6.20;99.90
44223;DHT22;29895;48.804;9.386;2024-03-06T07:26:57;6.30;99.90
44223;DHT22;29895;48.804;9.386;2024-03-06T07:29:23;6.30;99.90
44223;DHT22;29895;48.804;9.386;2024-03-06T07:31:48;6.30;99.90
44223;DHT22;29895;48.804;9.386;2024-03-06T07:34:14;6.30;99.90
44223;DHT22;29895;48.804;9.386;2024-03-06T07:36:40;6.40;99.90
44223;DHT22;29895;48.804;9.386;2024-03-06T07:39:06;6.40;99.90
44223;DHT22;29895;48.804;9.386;2024-03-06T07:41:32;6.40;99.90
44223;DHT22;29895;48.804;9.386;2024-03-06T07:43:58;6.50;99.90
44223;DHT22;29895;48.804;9.386;2024-03-06T07:46:25;6.50;99.90
44223;DHT22;29895;48.804;9.386;2024-03-06T07:48:51;6.50;99.90
44223;DHT22;29895;48.804;9.386;2024-03-06T07:51:17;6.50;99.90
44223;DHT22;29895;48.804;9.386;2024-03-06T07:53:43;6.50;99.90
44223;DHT22;29895;48.804;9.386;2024-03-06T07:56:11;6.50;99.90
44223;DHT22;29895;48.804;9.386;2024-03-06T07:58:38;6.50;99.90
44223;DHT22;29895;48.804;9.386;2024-03-06T08:01:04;6.50;99.90
44223;DHT22;29895;48.804;9.386;2024-03-06T08:03:29;6.50;99.90
44223;DHT22;29895;48.804;9.386;2024-03-06T08:05:55;6.50;99.90
44223;DHT22;29895;48.804;9.386;2024-03-06T08:08:21;6.60;99.90
44223;DHT22;29895;48.804;9.386;2024-03-06T08:10:47;6.50;99.90
44223;DHT22;29895;48.804;9.386;2024-03-06T08:13:13;6.50;99.90
44223;DHT22;29895;48.804;9.386;2024-03-06T08:15:39;6.50;99.90
44223;DHT22;29895;48.804;9.386;2024-03-06T08:18:06;6.50;99.90
44223;DHT22;29895;48.804;9.386;2024-03-06T08:20:32;6.50;99.90
44223;DHT22;29895;48.804;9.386;2024-03-06T08:22:58;6.50;99.90
44223;DHT22;29895;48.804;9.386;2024-03-06T08:25:24;6.50;99.90
44223;DHT22;29895;48.804;9.386;2024-03-06T08:27:50;6.50;99.90
44223;DHT22;29895;48.804;9.386;2024-03-06T08:30:15;6.50;99.90
44223;DHT22;29895;48.804;9.386;2024-03-06T08:32:41;6.60;99.90
44223;DHT22;29895;48.804;9.386;2024-03-06T08:35:12;6.60;99.90
44223;DHT22;29895;48.804;9.386;2024-03-06T08:37:41;6.60;99.90
44223;DHT22;29895;48.804;9.386;2024-03-06T08:40:08;6.60;99.90
44223;DHT22;29895;48.804;9.386;2024-03-06T08:42:43;6.60;99.90
44223;DHT22;29895;48.804;9.386;2024-03-06T08:45:09;6.60;99.90
44223;DHT22;29895;48.804;9.386;2024-03-06T08:47:36;6.60;99.90
44223;DHT22;29895;48.804;9.386;2024-03-06T08:50:02;6.60;99.90
44223;DHT22;29895;48.804;9.386;2024-03-06T08:52:28;6.70;99.90
44223;DHT22;29895;48.804;9.386;2024-03-06T08:54:55;6.70;99.90
44223;DHT22;29895;48.804;9.386;2024-03-06T08:57:20;6.70;99.90
44223;DHT22;29895;48.804;9.386;2024-03-06T08:59:47;6.70;99.90
44223;DHT22;29895;48.804;9.386;2024-03-06T09:02:15;6.60;99.90
44223;DHT22;29895;48.804;9.386;2024-03-06T09:04:44;6.70;99.90
44223;DHT22;29895;48.804;9.386;2024-03-06T09:07:10;6.70;99.90
44223;DHT22;29895;48.804;9.386;2024-03-06T09:09:36;6.60;99.90
44223;DHT22;29895;48.804;9.386;2024-03-06T09:12:06;6.70;99.90
44223;DHT22;29895;48.804;9.386;2024-03-06T09:14:32;6.60;99.90
44223;DHT22;29895;48.804;9.386;2024-03-06T09:16:58;6.60;99.90
44223;DHT22;29895;48.804;9.386;2024-03-06T09:19:24;6.60;99.90
44223;DHT22;29895;48.804;9.386;2024-03-06T09:21:50;6.60;99.90
44223;DHT22;29895;48.804;9.386;2024-03-06T09:24:15;6.60;99.90
44223;DHT22;29895;48.804;9.386;2024-03-06T09:26:41;6.60;99.90
44223;DHT22;29895;48.804;9.386;2024-03-06T09:29:07;6.60;99.90
44223;DHT22;29895;48.804;9.386;2024-03-06T09:31:32;6.50;99.90
44223;DHT22;29895;48.804;9.386;2024-03-06T09:33:58;6.50;99.90
44223;DHT22;29895;48.804;9.386;2024-03-06T09:36:24;6.50;99.90
44223;DHT22;29895;48.804;9.386;2024-03-06T09:38:51;6.50;99.90
44223;DHT22;29895;48.804;9.386;2024-03-06T09:41:18;6.50;99.90
44223;DHT22;29895;48.804;9.386;2024-03-06T09:43:44;6.60;99.90
44223;DHT22;29895;48.804;9.386;2024-03-06T09:46:10;6.60;99.90
44223;DHT22;29895;48.804;9.386;2024-03-06T09:48:36;6.50;99.90
44223;DHT22;29895;48.804;9.386;2024-03-06T09:51:10;6.50;99.90
44223;DHT22;29895;48.804;9.386;2024-03-06T09:53:38;6.50;99.90
44223;DHT22;29895;48.804;9.386;2024-03-06T09:56:05;6.60;99.90
44223;DHT22;29895;48.804;9.386;2024-03-06T09:58:31;6.60;99.90
44223;DHT22;29895;48.804;9.386;2024-03-06T10:00:59;6.70;99.90
44223;DHT22;29895;48.804;9.386;2024-03-06T10:03:26;6.70;99.90
44223;DHT22;29895;48.804;9.386;2024-03-06T10:05:52;6.80;99.90
44223;DHT22;29895;48.804;9.386;2024-03-06T10:08:20;6.80;99.90
44223;DHT22;29895;48.804;9.386;2024-03-06T10:10:51;6.80;99.90
44223;DHT22;29895;48.804;9.386;2024-03-06T10:13:17;6.70;99.90
44223;DHT22;29895;48.804;9.386;2024-03-06T10:15:58;6.80;99.90
44223;DHT22;29895;48.804;9.386;2024-03-06T10:18:26;6.80;99.90
44223;DHT22;29895;48.804;9.386;2024-03-06T10:20:52;6.90;99.90
44223;DHT22;29895;48.804;9.386;2024-03-06T10:23:19;6.80;99.90
44223;DHT22;29895;48.804;9.386;2024-03-06T10:25:46;6.80;99.90
44223;DHT22;29895;48.804;9.386;2024-03-06T10:28:17;6.90;99.90
44223;DHT22;29895;48.804;9.386;2024-03-06T10:30:42;6.90;99.90
44223;DHT22;29895;48.804;9.386;2024-03-06T10:33:09;7.00;99.90
44223;DHT22;29895;48.804;9.386;2024-03-06T10:35:36;7.00;99.90
44223;DHT22;29895;48.804;9.386;2024-03-06T10:38:03;7.00;99.90
44223;DHT22;29895;48.804;9.386;2024-03-06T10:40:32;7.00;99.90
44223;DHT22;29895;48.804;9.386;2024-03-06T10:42:59;7.10;99.90
44223;DHT22;29895;48.804;9.386;2024-03-06T10:48:18;7.20;99.90
44223;DHT22;29895;48.804;9.386;2024-03-06T10:50:45;7.20;99.90
44223;DHT22;29895;48.804;9.386;2024-03-06T10:53:13;7.20;99.90
44223;DHT22;29895;48.804;9.386;2024-03-06T10:55:40;7.20;99.90
44223;DHT22;29895;48.804;9.386;2024-03-06T10:58:07;7.30;99.90
44223;DHT22;29895;48.804;9.386;2024-03-06T11:00:38;7.30;99.90
44223;DHT22;29895;48.804;9.386;2024-03-06T11:03:06;7.30;99.90
44223;DHT22;29895;48.804;9.386;2024-03-06T11:05:41;7.30;99.90
44223;DHT22;29895;48.804;9.386;2024-03-06T11:08:09;7.20;99.90
44223;DHT22;29895;48.804;9.386;2024-03-06T11:10:37;7.30;99.90
44223;DHT22;29895;48.804;9.386;2024-03-06T11:13:04;7.30;99.90
44223;DHT22;29895;48.804;9.386;2024-03-06T11:15:34;7.30;99.90
44223;DHT22;29895;48.804;9.386;2024-03-06T11:23:32;7.30;99.90
44223;DHT22;29895;48.804;9.386;2024-03-06T11:26:07;7.30;99.90
44223;DHT22;29895;48.804;9.386;2024-03-06T11:28:38;7.30;99.90
44223;DHT22;29895;48.804;9.386;2024-03-06T11:31:11;7.30;99.90
44223;DHT22;29895;48.804;9.386;2024-03-06T11:33:40;7.30;99.90
44223;DHT22;29895;48.804;9.386;2024-03-06T11:36:23;7.30;99.90
44223;DHT22;29895;48.804;9.386;2024-03-06T11:38:58;7.30;99.90
44223;DHT22;29895;48.804;9.386;2024-03-06T11:41:26;7.30;99.90
44223;DHT22;29895;48.804;9.386;2024-03-06T11:43:54;7.30;99.90
44223;DHT22;29895;48.804;9.386;2024-03-06T11:46:22;7.30;99.90
44223;DHT22;29895;48.804;9.386;2024-03-06T11:48:57;7.30;99.90
44223;DHT22;29895;48.804;9.386;2024-03-06T11:51:24;7.30;99.90
44223;DHT22;29895;48.804;9.386;2024-03-06T11:53:50;7.30;99.90
44223;DHT22;29895;48.804;9.386;2024-03-06T11:56:18;7.40;99.90
44223;DHT22;29895;48.804;9.386;2024-03-06T11:58:44;7.40;99.90
44223;DHT22;29895;48.804;9.386;2024-03-06T12:01:10;7.50;99.90
44223;DHT22;29895;48.804;9.386;2024-03-06T12:03:36;7.50;99.90
44223;DHT22;29895;48.804;9.386;2024-03-06T12:06:02;7.50;99.90
44223;DHT22;29895;48.804;9.386;2024-03-06T12:08:28;7.50;99.90
44223;DHT22;29895;48.804;9.386;2024-03-06T12:10:54;7.60;99.90
44223;DHT22;29895;48.804;9.386;2024-03-06T12:13:24;7.50;99.90
44223;DHT22;29895;48.804;9.386;2024-03-06T12:15:50;7.50;99.90
44223;DHT22;29895;48.804;9.386;2024-03-06T12:18:17;7.50;99.90
44223;DHT22;29895;48.804;9.386;2024-03-06T12:20:44;7.50;99.90
44223;DHT22;29895;48.804;9.386;2024-03-06T12:23:19;7.60;99.90
44223;DHT22;29895;48.804;9.386;2024-03-06T12:25:46;7.60;99.90
44223;DHT22;29895;48.804;9.386;2024-03-06T12:28:12;7.60;99.90
44223;DHT22;29895;48.804;9.386;2024-03-06T12:30:42;7.60;99.90
44223;DHT22;29895;48.804;9.386;2024-03-06T12:33:08;7.60;99.90
44223;DHT22;29895;48.804;9.386;2024-03-06T12:35:35;7.70;99.90
44223;DHT22;29895;48.804;9.386;2024-03-06T12:38:11;7.70;99.90
44223;DHT22;29895;48.804;9.386;2024-03-06T12:40:37;7.70;99.90
44223;DHT22;29895;48.804;9.386;2024-03-06T12:43:03;7.70;99.90
44223;DHT22;29895;48.804;9.386;2024-03-06T12:45:29;7.70;99.90
44223;DHT22;29895;48.804;9.386;2024-03-06T12:47:55;7.60;99.90
44223;DHT22;29895;48.804;9.386;2024-03-06T12:50:21;7.60;99.90
44223;DHT22;29895;48.804;9.386;2024-03-06T12:52:46;7.60;99.90
44223;DHT22;29895;48.804;9.386;2024-03-06T12:55:12;7.60;99.90
44223;DHT22;29895;48.804;9.386;2024-03-06T12:57:40;7.50;99.90
44223;DHT22;29895;48.804;9.386;2024-03-06T13:00:06;7.60;99.90
44223;DHT22;29895;48.804;9.386;2024-03-06T13:02:44;7.60;99.90
44223;DHT22;29895;48.804;9.386;2024-03-06T13:05:11;7.60;99.90
44223;DHT22;29895;48.804;9.386;2024-03-06T13:07:36;7.70;99.90
44223;DHT22;29895;48.804;9.386;2024-03-06T13:10:03;7.70;99.90
44223;DHT22;29895;48.804;9.386;2024-03-06T13:12:29;7.70;99.90
44223;DHT22;29895;48.804;9.386;2024-03-06T13:14:54;7.70;99.90
44223;DHT22;29895;48.804;9.386;2024-03-06T13:17:20;7.70;99.90
44223;DHT22;29895;48.804;9.386;2024-03-06T13:19:46;7.70;99.90
44223;DHT22;29895;48.804;9.386;2024-03-06T13:22:11;7.70;99.90
44223;DHT22;29895;48.804;9.386;2024-03-06T13:24:37;7.70;99.90
44223;DHT22;29895;48.804;9.386;2024-03-06T13:27:03;7.70;99.90
44223;DHT22;29895;48.804;9.386;2024-03-06T13:29:29;7.70;99.90
44223;DHT22;29895;48.804;9.386;2024-03-06T13:31:55;7.80;99.90
44223;DHT22;29895;48.804;9.386;2024-03-06T13:34:21;7.80;99.90
44223;DHT22;29895;48.804;9.386;2024-03-06T13:36:46;7.80;99.90
44223;DHT22;29895;48.804;9.386;2024-03-06T13:39:12;7.80;99.90
44223;DHT22;29895;48.804;9.386;2024-03-06T13:41:38;7.80;99.90
44223;DHT22;29895;48.804;9.386;2024-03-06T13:44:03;7.80;99.90
44223;DHT22;29895;48.804;9.386;2024-03-06T13:46:29;7.80;99.90
44223;DHT22;29895;48.804;9.386;2024-03-06T13:48:55;7.70;99.90
44223;DHT22;29895;48.804;9.386;2024-03-06T13:51:21;7.70;99.90
44223;DHT22;29895;48.804;9.386;2024-03-06T13:53:46;7.70;99.90
44223;DHT22;29895;48.804;9.386;2024-03-06T13:56:12;7.70;99.90
44223;DHT22;29895;48.804;9.386;2024-03-06T13:58:38;7.70;99.90
44223;DHT22;29895;48.804;9.386;2024-03-06T14:01:04;7.80;99.90
44223;DHT22;29895;48.804;9.386;2024-03-06T14:03:31;7.80;99.90
44223;DHT22;29895;48.804;9.386;2024-03-06T14:05:59;7.90;99.90
44223;DHT22;29895;48.804;9.386;2024-03-06T14:08:24;7.90;99.90
44223;DHT22;29895;48.804;9.386;2024-03-06T14:10:51;7.90;99.90
44223;DHT22;29895;48.804;9.386;2024-03-06T14:13:17;7.90;99.90
44223;DHT22;29895;48.804;9.386;2024-03-06T14:15:42;7.80;99.90
44223;DHT22;29895;48.804;9.386;2024-03-06T14:18:08;7.70;99.90
44223;DHT22;29895;48.804;9.386;2024-03-06T14:20:34;7.70;99.90
44223;DHT22;29895;48.804;9.386;2024-03-06T14:23:00;7.60;99.90
44223;DHT22;29895;48.804;9.386;2024-03-06T14:25:25;7.60;99.90
44223;DHT22;29895;48.804;9.386;2024-03-06T14:27:51;7.60;99.90
44223;DHT22;29895;48.804;9.386;2024-03-06T14:30:16;7.60;99.90
44223;DHT22;29895;48.804;9.386;2024-03-06T14:32:44;7.60;99.90
44223;DHT22;29895;48.804;9.386;2024-03-06T14:35:10;7.70;99.90
44223;DHT22;29895;48.804;9.386;2024-03-06T14:37:36;7.70;99.90
44223;DHT22;29895;48.804;9.386;2024-03-06T14:40:04;7.70;99.90
44223;DHT22;29895;48.804;9.386;2024-03-06T14:42:34;7.70;99.90
44223;DHT22;29895;48.804;9.386;2024-03-06T14:45:00;7.70;99.90
44223;DHT22;29895;48.804;9.386;2024-03-06T14:47:26;7.80;99.90
44223;DHT22;29895;48.804;9.386;2024-03-06T14:49:52;7.80;99.90
44223;DHT22;29895;48.804;9.386;2024-03-06T14:52:19;7.80;99.90
44223;DHT22;29895;48.804;9.386;2024-03-06T14:54:44;7.80;99.90
44223;DHT22;29895;48.804;9.386;2024-03-06T14:57:13;7.80;99.90
44223;DHT22;29895;48.804;9.386;2024-03-06T14:59:38;7.80;99.90
44223;DHT22;29895;48.804;9.386;2024-03-06T15:02:04;7.80;99.90
44223;DHT22;29895;48.804;9.386;2024-03-06T15:04:30;7.70;99.90
44223;DHT22;29895;48.804;9.386;2024-03-06T15:06:56;7.70;99.90
44223;DHT22;29895;48.804;9.386;2024-03-06T15:09:22;7.70;99.90
44223;DHT22;29895;48.804;9.386;2024-03-06T15:11:51;7.80;99.90
44223;DHT22;29895;48.804;9.386;2024-03-06T15:14:18;7.70;99.90
44223;DHT22;29895;48.804;9.386;2024-03-06T15:16:44;7.70;99.90
44223;DHT22;29895;48.804;9.386;2024-03-06T15:19:10;7.70;99.90
44223;DHT22;29895;48.804;9.386;2024-03-06T15:21:36;7.70;99.90
44223;DHT22;29895;48.804;9.386;2024-03-06T15:24:02;7.70;99.90
44223;DHT22;29895;48.804;9.386;2024-03-06T15:26:27;7.70;99.90
44223;DHT22;29895;48.804;9.386;2024-03-06T15:28:53;7.70;99.90
44223;DHT22;29895;48.804;9.386;2024-03-06T15:31:19;7.70;99.90
44223;DHT22;29895;48.804;9.386;2024-03-06T15:33:45;7.70;99.90
44223;DHT22;29895;48.804;9.386;2024-03-06T15:36:13;7.70;99.90
44223;DHT22;29895;48.804;9.386;2024-03-06T15:38:39;7.80;99.90
44223;DHT22;29895;48.804;9.386;2024-03-06T15:41:05;7.80;99.90
44223;DHT22;29895;48.804;9.386;2024-03-06T15:43:37;7.70;99.90
44223;DHT22;29895;48.804;9.386;2024-03-06T15:46:03;7.80;99.90
44223;DHT22;29895;48.804;9.386;2024-03-06T15:48:29;7.70;99.90